createdAt,value
2018-07-07T00:01:50.127Z,96370.34
2018-07-07T00:04:18.754Z,96372.16
2018-07-07T00:06:47.315Z,96372.84
2018-07-07T00:09:16.151Z,96365.64
2018-07-07T00:11:44.711Z,96365.64
2018-07-07T00:14:13.396Z,96366.08
2018-07-07T00:16:41.982Z,96363.73
2018-07-07T00:19:10.613Z,96358.67
2018-07-07T00:21:39.195Z,96352.98
2018-07-07T00:24:07.781Z,96350.05
2018-07-07T00:26:36.362Z,96351.21
2018-07-07T00:29:04.952Z,96349.43
2018-07-07T00:31:33.476Z,96345.84
2018-07-07T00:34:02.169Z,96346.32
2018-07-07T00:36:30.703Z,96351.39
2018-07-07T00:38:59.223Z,96358.88
2018-07-07T00:41:27.765Z,96352.65
2018-07-07T00:43:56.360Z,96354.29
2018-07-07T00:46:24.980Z,96358.80
2018-07-07T00:48:53.568Z,96362.34
2018-07-07T00:51:22.110Z,96356.36
2018-07-07T00:53:50.704Z,96358.75
2018-07-07T00:56:19.399Z,96360.27
2018-07-07T00:58:47.949Z,96359.63
2018-07-07T01:01:17.017Z,96357.67
2018-07-07T01:03:45.977Z,96348.09
2018-07-07T01:06:26.096Z,96360.15
2018-07-07T01:08:54.744Z,96364.39
2018-07-07T01:11:24.639Z,96363.30
2018-07-07T01:13:53.413Z,96365.42
2018-07-07T01:16:22.133Z,96363.61
2018-07-07T01:18:50.679Z,96362.78
2018-07-07T01:21:19.230Z,96366.69
2018-07-07T01:23:47.792Z,96362.78
2018-07-07T01:26:16.441Z,96366.27
2018-07-07T01:28:44.981Z,96369.98
2018-07-07T01:31:13.534Z,96368.03
2018-07-07T01:33:42.062Z,96362.84
2018-07-07T01:36:10.716Z,96364.16
2018-07-07T01:38:39.259Z,96361.56
2018-07-07T01:41:07.897Z,96354.58
2018-07-07T01:43:36.463Z,96359.95
2018-07-07T01:46:05.038Z,96347.28
2018-07-07T01:48:33.617Z,96342.11
2018-07-07T01:51:02.192Z,96347.28
2018-07-07T01:53:30.748Z,96350.56
2018-07-07T01:55:59.298Z,96357.36
2018-07-07T01:58:27.980Z,96349.73
2018-07-07T02:00:56.584Z,96355.25
2018-07-07T02:03:25.116Z,96352.63
2018-07-07T02:05:53.740Z,96347.56
2018-07-07T02:08:22.283Z,96346.61
2018-07-07T02:10:50.807Z,96345.13
2018-07-07T02:13:19.387Z,96348.02
2018-07-07T02:15:47.929Z,96345.56
2018-07-07T02:18:16.516Z,96354.77
2018-07-07T02:20:45.088Z,96365.27
2018-07-07T02:23:13.801Z,96369.45
2018-07-07T02:25:42.336Z,96367.39
2018-07-07T02:28:10.937Z,96367.05
2018-07-07T02:30:39.515Z,96367.02
2018-07-07T02:33:08.168Z,96369.77
2018-07-07T02:35:37.018Z,96368.00
2018-07-07T02:38:05.692Z,96363.27
2018-07-07T02:40:34.616Z,96362.00
2018-07-07T02:43:03.248Z,96358.53
2018-07-07T02:45:31.788Z,96364.19
2018-07-07T02:48:00.336Z,96360.94
2018-07-07T02:50:28.994Z,96365.17
2018-07-07T02:52:57.560Z,96361.73
2018-07-07T02:55:26.259Z,96367.26
2018-07-07T02:58:03.694Z,96372.25
2018-07-07T03:00:44.187Z,96367.76
2018-07-07T03:03:21.419Z,96374.23
2018-07-07T03:05:58.887Z,96363.72
2018-07-07T03:08:35.827Z,96373.01
2018-07-07T03:11:13.765Z,96368.55
2018-07-07T03:13:43.684Z,96373.58
2018-07-07T03:16:12.365Z,96367.09
2018-07-07T03:18:41.674Z,96367.30
2018-07-07T03:21:10.768Z,96377.77
2018-07-07T03:23:39.482Z,96382.12
2018-07-07T03:26:08.081Z,96389.10
2018-07-07T03:28:41.209Z,96380.67
2018-07-07T03:31:09.814Z,96393.15
2018-07-07T03:33:45.407Z,96390.80
2018-07-07T03:36:23.236Z,96392.05
2018-07-07T03:38:56.857Z,96402.25
2018-07-07T03:41:25.426Z,96402.14
2018-07-07T03:43:58.412Z,96402.45
2018-07-07T03:46:26.971Z,96404.73
2018-07-07T03:48:56.247Z,96407.01
2018-07-07T03:51:24.823Z,96411.41
2018-07-07T03:53:53.377Z,96410.42
2018-07-07T03:56:22.366Z,96414.58
2018-07-07T03:58:51.279Z,96418.34
2018-07-07T04:01:19.827Z,96417.84
2018-07-07T04:03:48.380Z,96421.30
2018-07-07T04:06:16.936Z,96423.84
2018-07-07T04:08:45.484Z,96423.80
2018-07-07T04:11:16.476Z,96425.63
2018-07-07T04:13:45.064Z,96432.15
2018-07-07T04:16:13.704Z,96432.97
2018-07-07T04:18:42.292Z,96426.65
2018-07-07T04:21:11.005Z,96425.00
2018-07-07T04:23:48.059Z,96426.55
2018-07-07T04:26:16.644Z,96420.47
2018-07-07T04:28:48.527Z,96421.61
2018-07-07T04:31:25.892Z,96429.95
2018-07-07T04:34:06.103Z,96431.09
2018-07-07T04:36:39.857Z,96432.29
2018-07-07T04:39:17.604Z,96423.97
2018-07-07T04:41:55.029Z,96429.53
2018-07-07T04:44:23.572Z,96427.14
2018-07-07T04:46:52.124Z,96432.48
2018-07-07T04:49:20.762Z,96430.63
2018-07-07T04:51:49.740Z,96425.98
2018-07-07T04:54:18.698Z,96432.05
2018-07-07T04:56:50.059Z,96434.52
2018-07-07T04:59:20.990Z,96440.31
2018-07-07T05:01:52.302Z,96433.06
2018-07-07T05:04:21.062Z,96445.39
2018-07-07T05:06:49.596Z,96438.03
2018-07-07T05:09:18.179Z,96435.11
2018-07-07T05:11:46.716Z,96433.66
2018-07-07T05:14:15.264Z,96439.34
2018-07-07T05:16:43.868Z,96439.38
2018-07-07T05:19:12.707Z,96437.50
2018-07-07T05:21:41.252Z,96435.06
2018-07-07T05:24:09.906Z,96435.73
2018-07-07T05:26:38.500Z,96439.33
2018-07-07T05:29:07.155Z,96437.23
2018-07-07T05:31:35.777Z,96431.88
2018-07-07T05:34:04.354Z,96434.32
2018-07-07T05:36:32.917Z,96427.50
2018-07-07T05:39:01.516Z,96426.16
2018-07-07T05:41:30.051Z,96423.77
2018-07-07T05:43:58.601Z,96428.95
2018-07-07T05:46:27.167Z,96428.63
2018-07-07T05:48:55.743Z,96421.94
2018-07-07T05:51:24.303Z,96418.52
2018-07-07T05:53:52.874Z,96414.03
2018-07-07T05:56:21.436Z,96410.38
2018-07-07T05:58:50.028Z,96411.02
2018-07-07T06:01:18.633Z,96418.55
2018-07-07T06:03:47.198Z,96418.12
2018-07-07T06:06:16.604Z,96420.06
2018-07-07T06:08:45.143Z,96423.15
2018-07-07T06:11:13.752Z,96424.86
2018-07-07T06:13:42.338Z,96422.30
2018-07-07T06:16:10.947Z,96422.08
2018-07-07T06:18:39.520Z,96418.94
2018-07-07T06:21:08.240Z,96417.81
2018-07-07T06:23:36.833Z,96421.20
2018-07-07T06:26:05.572Z,96416.92
2018-07-07T06:28:34.368Z,96420.39
2018-07-07T06:31:02.937Z,96422.02
2018-07-07T06:33:31.489Z,96428.00
2018-07-07T06:36:00.058Z,96423.50
2018-07-07T06:38:28.935Z,96421.08
2018-07-07T06:40:57.671Z,96422.02
2018-07-07T06:43:26.301Z,96425.51
2018-07-07T06:45:55.067Z,96422.13
2018-07-07T06:48:23.621Z,96425.88
2018-07-07T06:50:52.281Z,96419.70
2018-07-07T06:53:20.908Z,96417.59
2018-07-07T06:55:49.544Z,96415.50
2018-07-07T06:58:18.500Z,96417.81
2018-07-07T07:00:47.060Z,96414.84
2018-07-07T07:03:15.629Z,96414.50
2018-07-07T07:05:44.202Z,96421.61
2018-07-07T07:08:12.963Z,96417.90
2018-07-07T07:10:41.541Z,96414.58
2018-07-07T07:13:10.300Z,96415.46
2018-07-07T07:15:38.939Z,96413.86
2018-07-07T07:18:07.527Z,96411.14
2018-07-07T07:20:36.104Z,96414.72
2018-07-07T07:23:04.776Z,96411.13
2018-07-07T07:25:33.443Z,96403.95
2018-07-07T07:28:20.493Z,96408.17
2018-07-07T07:30:49.101Z,96409.25
2018-07-07T07:33:18.442Z,96413.34
2018-07-07T07:35:47.813Z,96408.19
2018-07-07T07:38:16.420Z,96412.66
2018-07-07T07:40:45.781Z,96411.53
2018-07-07T07:43:15.344Z,96401.01
2018-07-07T07:45:44.736Z,96398.34
2018-07-07T07:48:25.946Z,96406.68
2018-07-07T07:50:55.352Z,96395.87
2018-07-07T07:53:24.796Z,96407.16
2018-07-07T07:55:53.490Z,96403.30
2018-07-07T07:58:22.059Z,96401.68
2018-07-07T08:00:51.431Z,96401.95
2018-07-07T08:03:20.036Z,96399.86
2018-07-07T08:05:48.649Z,96400.61
2018-07-07T08:08:17.223Z,96400.08
2018-07-07T08:10:45.801Z,96404.53
2018-07-07T08:13:14.372Z,96400.70
2018-07-07T08:15:43.749Z,96375.07
2018-07-07T08:18:13.423Z,96409.69
2018-07-07T08:20:42.156Z,96408.05
2018-07-07T08:23:11.702Z,96415.47
2018-07-07T08:25:42.392Z,96407.59
2018-07-07T08:28:11.877Z,96405.95
2018-07-07T08:30:40.804Z,96406.64
2018-07-07T08:33:09.583Z,96409.19
2018-07-07T08:35:38.218Z,96407.95
2018-07-07T08:38:08.993Z,96404.20
2018-07-07T08:40:37.573Z,96407.26
2018-07-07T08:43:06.797Z,96405.16
2018-07-07T08:45:35.377Z,96405.16
2018-07-07T08:50:54.779Z,96399.33
2018-07-07T08:53:23.373Z,96396.41
2018-07-07T08:55:51.917Z,96405.05
2018-07-07T09:01:11.300Z,96398.09
2018-07-07T09:03:39.864Z,96399.31
2018-07-07T09:06:08.476Z,96397.11
2018-07-07T09:08:37.075Z,96393.38
2018-07-07T09:11:05.869Z,96397.72
2018-07-07T09:13:34.392Z,96390.26
2018-07-07T09:16:02.976Z,96397.46
2018-07-07T09:18:31.585Z,96399.80
2018-07-07T09:21:00.219Z,96395.99
2018-07-07T09:23:28.769Z,96392.79
2018-07-07T09:25:57.365Z,96389.65
2018-07-07T09:28:25.921Z,96393.52
2018-07-07T09:30:54.501Z,96394.61
2018-07-07T09:33:23.842Z,96394.05
2018-07-07T09:35:52.443Z,96385.34
2018-07-07T09:38:21.025Z,96394.23
2018-07-07T09:40:49.702Z,96395.25
2018-07-07T09:43:18.328Z,96396.59
2018-07-07T09:45:46.917Z,96396.98
2018-07-07T09:48:15.634Z,96397.63
2018-07-07T09:50:44.368Z,96397.50
2018-07-07T09:53:14.124Z,96396.31
2018-07-07T09:55:51.431Z,96386.58
2018-07-07T09:58:29.317Z,96393.05
2018-07-07T10:00:57.936Z,96400.72
2018-07-07T10:03:27.528Z,96399.67
2018-07-07T10:05:57.076Z,96397.08
2018-07-07T10:08:27.658Z,96392.89
2018-07-07T10:10:57.077Z,96388.28
2018-07-07T10:13:26.910Z,96384.68
2018-07-07T10:15:56.399Z,96381.86
2018-07-07T10:18:25.939Z,96387.30
2018-07-07T10:20:54.502Z,96386.47
2018-07-07T10:23:24.910Z,96387.80
2018-07-07T10:25:53.685Z,96382.40
2018-07-07T10:28:22.270Z,96394.67
2018-07-07T10:30:50.852Z,96393.10
2018-07-07T10:33:19.400Z,96391.36
2018-07-07T10:38:15.617Z,96394.88
2018-07-07T10:40:44.292Z,96402.27
2018-07-07T10:43:13.252Z,96406.62
2018-07-07T10:45:41.867Z,96396.70
2018-07-07T10:48:10.411Z,96408.66
2018-07-07T10:50:38.993Z,96407.39
2018-07-07T10:53:07.683Z,96410.50
2018-07-07T10:55:36.581Z,96407.45
2018-07-07T10:58:05.208Z,96403.89
2018-07-07T11:00:33.772Z,96400.23
2018-07-07T11:03:02.312Z,96406.89
2018-07-07T11:05:30.907Z,96397.71
2018-07-07T11:07:59.458Z,96396.09
2018-07-07T11:10:28.005Z,96389.30
2018-07-07T11:12:56.647Z,96387.32
2018-07-07T11:15:25.349Z,96384.94
2018-07-07T11:17:53.913Z,96384.76
2018-07-07T11:20:22.526Z,96378.63
2018-07-07T11:22:51.095Z,96384.45
2018-07-07T11:25:19.813Z,96373.98
2018-07-07T11:27:48.434Z,96381.32
2018-07-07T11:30:17.164Z,96387.20
2018-07-07T11:32:45.716Z,96372.85
2018-07-07T11:35:14.286Z,96365.66
2018-07-07T11:37:42.858Z,96368.72
2018-07-07T11:40:11.461Z,96365.67
2018-07-07T11:42:40.054Z,96370.44
2018-07-07T11:45:08.832Z,96371.38
2018-07-07T11:47:37.544Z,96375.85
2018-07-07T11:50:06.207Z,96371.20
2018-07-07T11:52:34.809Z,96369.50
2018-07-07T11:55:03.468Z,96366.66
2018-07-07T11:57:32.087Z,96364.84
2018-07-07T12:00:00.629Z,96355.70
2018-07-07T12:02:29.227Z,96357.18
2018-07-07T12:04:57.937Z,96354.31
2018-07-07T12:07:26.492Z,96351.61
2018-07-07T12:09:55.056Z,96358.53
2018-07-07T12:12:23.675Z,96347.31
2018-07-07T12:14:52.286Z,96351.61
2018-07-07T12:17:21.767Z,96371.88
2018-07-07T12:19:51.230Z,96355.58
2018-07-07T12:22:19.865Z,96353.23
2018-07-07T12:24:48.438Z,96350.73
2018-07-07T12:27:17.114Z,96356.39
2018-07-07T12:29:45.788Z,96342.58
2018-07-07T12:32:14.862Z,96336.48
2018-07-07T12:34:43.411Z,96335.19
2018-07-07T12:37:12.160Z,96318.36
2018-07-07T12:42:31.056Z,96313.30
2018-07-07T12:44:59.604Z,96324.20
2018-07-07T12:47:28.151Z,96322.20
2018-07-07T12:49:56.690Z,96317.15
2018-07-07T12:52:25.322Z,96316.34
2018-07-07T12:54:53.901Z,96314.18
2018-07-07T12:57:22.460Z,96323.69
2018-07-07T12:59:51.000Z,96315.30
2018-07-07T13:02:19.630Z,96322.31
2018-07-07T13:04:48.183Z,96311.80
2018-07-07T13:07:16.728Z,96310.36
2018-07-07T13:09:45.281Z,96312.67
2018-07-07T13:12:13.896Z,96314.20
2018-07-07T13:14:42.533Z,96318.27
2018-07-07T13:17:11.228Z,96310.70
2018-07-07T13:19:39.816Z,96313.19
2018-07-07T13:22:08.456Z,96306.25
2018-07-07T13:24:37.079Z,96326.36
2018-07-07T13:27:05.885Z,96321.49
2018-07-07T13:29:34.479Z,96319.67
2018-07-07T13:32:03.042Z,96324.62
2018-07-07T13:34:31.584Z,96316.41
2018-07-07T13:37:00.137Z,96325.05
2018-07-07T13:39:28.749Z,96317.85
2018-07-07T13:41:57.393Z,96311.67
2018-07-07T13:44:25.957Z,96305.41
2018-07-07T13:46:54.569Z,96298.89
2018-07-07T13:49:23.443Z,96297.83
2018-07-07T13:51:52.247Z,96308.18
2018-07-07T13:54:20.858Z,96310.80
2018-07-07T13:56:49.396Z,96314.55
2018-07-07T13:59:18.008Z,96317.72
2018-07-07T14:01:46.601Z,96308.34
2018-07-07T14:04:15.196Z,96316.16
2018-07-07T14:06:43.733Z,96305.77
2018-07-07T14:09:12.356Z,96298.23
2018-07-07T14:11:40.923Z,96309.55
2018-07-07T14:14:10.439Z,96300.14
2018-07-07T14:16:39.765Z,96311.69
2018-07-07T14:19:08.405Z,96288.25
2018-07-07T14:21:37.000Z,96295.64
2018-07-07T14:24:05.652Z,96295.55
2018-07-07T14:26:34.212Z,96295.61
2018-07-07T14:29:02.782Z,96298.73
2018-07-07T14:31:31.461Z,96300.83
2018-07-07T14:34:00.071Z,96296.50
2018-07-07T14:36:28.729Z,96289.08
2018-07-07T14:38:57.263Z,96292.67
2018-07-07T14:41:25.928Z,96296.80
2018-07-07T14:43:57.352Z,96287.14
2018-07-07T14:46:26.656Z,96298.98
2018-07-07T14:48:55.258Z,96293.03
2018-07-07T14:51:24.177Z,96278.44
2018-07-07T14:53:52.839Z,96283.30
2018-07-07T14:56:22.636Z,96285.64
2018-07-07T14:58:51.733Z,96279.64
2018-07-07T15:01:20.710Z,96280.13
2018-07-07T15:03:49.308Z,96287.47
2018-07-07T15:06:17.927Z,96279.14
2018-07-07T15:08:46.519Z,96278.61
2018-07-07T15:11:15.317Z,96281.44
2018-07-07T15:13:43.996Z,96283.91
2018-07-07T15:16:12.637Z,96274.81
2018-07-07T15:18:48.236Z,96287.18
2018-07-07T15:21:16.789Z,96280.27
2018-07-07T15:23:45.392Z,96280.96
2018-07-07T15:26:14.004Z,96279.55
2018-07-07T15:28:42.635Z,96277.23
2018-07-07T15:31:11.462Z,96279.75
2018-07-07T15:33:40.035Z,96283.70
2018-07-07T15:36:08.642Z,96287.32
2018-07-07T15:38:37.193Z,96290.73
2018-07-07T15:41:05.784Z,96288.23
2018-07-07T15:43:34.331Z,96296.83
2018-07-07T15:46:02.917Z,96297.39
2018-07-07T15:48:31.555Z,96288.27
2018-07-07T15:51:00.148Z,96297.45
2018-07-07T15:53:28.716Z,96286.65
2018-07-07T15:55:57.295Z,96285.55
2018-07-07T15:58:25.866Z,96284.33
2018-07-07T16:00:54.454Z,96283.11
2018-07-07T16:03:23.110Z,96280.13
2018-07-07T16:05:51.668Z,96280.41
2018-07-07T16:08:20.212Z,96289.16
2018-07-07T16:10:48.790Z,96283.86
2018-07-07T16:13:18.036Z,96285.28
2018-07-07T16:15:48.772Z,96280.28
2018-07-07T16:18:18.111Z,96280.76
2018-07-07T16:20:47.458Z,96277.41
2018-07-07T16:23:17.063Z,96273.77
2018-07-07T16:25:45.631Z,96275.90
2018-07-07T16:28:14.287Z,96284.95
2018-07-07T16:30:42.873Z,96275.56
2018-07-07T16:33:11.543Z,96277.44
2018-07-07T16:35:40.145Z,96282.70
2018-07-07T16:38:08.748Z,96292.33
2018-07-07T16:40:37.334Z,96288.56
2018-07-07T16:43:06.070Z,96285.05
2018-07-07T16:45:34.789Z,96290.42
2018-07-07T16:48:03.376Z,96292.48
2018-07-07T16:50:32.028Z,96287.50
2018-07-07T16:53:00.665Z,96292.13
2018-07-07T16:55:29.491Z,96282.32
2018-07-07T16:57:58.172Z,96290.09
2018-07-07T17:00:26.839Z,96288.07
2018-07-07T17:02:55.646Z,96295.73
2018-07-07T17:05:24.404Z,96293.70
2018-07-07T17:07:53.080Z,96296.85
2018-07-07T17:10:21.651Z,96301.68
2018-07-07T17:12:50.860Z,96298.80
2018-07-07T17:15:19.480Z,96303.36
2018-07-07T17:17:48.137Z,96302.73
2018-07-07T17:20:16.753Z,96304.69
2018-07-07T17:22:47.608Z,96304.95
2018-07-07T17:25:16.445Z,96305.85
2018-07-07T17:27:45.095Z,96311.16
2018-07-07T17:30:13.860Z,96308.92
2018-07-07T17:32:42.444Z,96309.34
2018-07-07T17:35:11.396Z,96307.22
2018-07-07T17:37:40.036Z,96301.05
2018-07-07T17:40:09.876Z,96307.52
2018-07-07T17:42:38.433Z,96310.64
2018-07-07T17:45:07.016Z,96315.30
2018-07-07T17:47:36.114Z,96315.19
2018-07-07T17:50:04.853Z,96321.98
2018-07-07T17:52:34.866Z,96326.13
2018-07-07T17:55:05.473Z,96324.92
2018-07-07T17:57:36.676Z,96322.59
2018-07-07T18:00:05.464Z,96331.06
2018-07-07T18:02:34.063Z,96328.66
2018-07-07T18:05:03.678Z,96335.52
2018-07-07T18:07:32.436Z,96331.70
2018-07-07T18:10:00.988Z,96333.91
2018-07-07T18:12:29.512Z,96336.59
2018-07-07T18:14:58.899Z,96337.70
2018-07-07T18:17:28.367Z,96339.39
2018-07-07T18:19:56.907Z,96341.84
2018-07-07T18:22:25.672Z,96344.34
2018-07-07T18:24:54.424Z,96349.02
2018-07-07T18:27:23.035Z,96346.42
2018-07-07T18:29:51.615Z,96350.52
2018-07-07T18:32:20.217Z,96349.95
2018-07-07T18:34:48.900Z,96353.11
2018-07-07T18:37:17.466Z,96356.27
2018-07-07T18:39:46.068Z,96359.30
2018-07-07T18:42:14.645Z,96361.23
2018-07-07T18:44:43.238Z,96360.86
2018-07-07T18:47:12.075Z,96367.57
2018-07-07T18:49:40.631Z,96369.77
2018-07-07T18:52:14.684Z,96372.33
2018-07-07T18:54:43.266Z,96377.94
2018-07-07T18:57:13.058Z,96379.44
2018-07-07T18:59:41.615Z,96382.54
2018-07-07T19:02:10.212Z,96383.80
2018-07-07T19:04:39.804Z,96395.16
2018-07-07T19:07:08.401Z,96393.08
2018-07-07T19:09:36.999Z,96394.81
2018-07-07T19:12:05.680Z,96396.05
2018-07-07T19:14:34.233Z,96398.86
2018-07-07T19:17:02.848Z,96399.67
2018-07-07T19:19:31.395Z,96405.24
2018-07-07T19:22:05.875Z,96411.45
2018-07-07T19:24:40.539Z,96409.77
2018-07-07T19:27:09.133Z,96414.02
2018-07-07T19:29:38.597Z,96418.91
2018-07-07T19:32:13.127Z,96422.26
2018-07-07T19:35:44.260Z,96418.30
2018-07-07T19:38:13.716Z,96424.42
2018-07-07T19:40:43.132Z,96422.20
2018-07-07T19:43:11.786Z,96415.14
2018-07-07T19:45:40.384Z,96425.50
2018-07-07T19:48:10.125Z,96422.59
2018-07-07T19:50:38.728Z,96423.83
2018-07-07T19:53:07.432Z,96427.36
2018-07-07T19:55:35.992Z,96428.17
2018-07-07T19:58:04.565Z,96435.48
2018-07-07T20:00:33.103Z,96428.02
2018-07-07T20:03:01.678Z,96433.27
2018-07-07T20:05:31.048Z,96429.41
2018-07-07T20:07:59.591Z,96420.53
2018-07-07T20:10:28.185Z,96434.08
2018-07-07T20:12:56.832Z,96428.86
2018-07-07T20:15:36.560Z,96424.51
2018-07-07T20:18:06.504Z,96428.90
2018-07-07T20:20:40.166Z,96435.23
2018-07-07T20:23:16.499Z,96432.89
2018-07-07T20:25:50.379Z,96436.11
2018-07-07T20:28:24.449Z,96434.54
2018-07-07T20:30:57.794Z,96434.06
2018-07-07T20:33:27.172Z,96436.52
2018-07-07T20:35:55.811Z,96433.92
2018-07-07T20:38:24.647Z,96436.04
2018-07-07T20:40:53.448Z,96436.18
2018-07-07T20:43:22.047Z,96438.50
2018-07-07T20:45:50.626Z,96431.01
2018-07-07T20:48:19.176Z,96434.23
2018-07-07T20:50:47.707Z,96436.52
2018-07-07T20:55:36.010Z,96435.14
2018-07-07T20:58:04.648Z,96440.66
2018-07-07T21:00:33.269Z,96440.95
2018-07-07T21:03:01.822Z,96444.17
2018-07-07T21:05:30.461Z,96443.55
2018-07-07T21:07:59.108Z,96437.36
2018-07-07T21:10:27.691Z,96446.59
2018-07-07T21:12:56.299Z,96443.17
2018-07-07T21:15:24.931Z,96435.36
2018-07-07T21:17:53.497Z,96433.28
2018-07-07T21:20:22.080Z,96438.70
2018-07-07T21:22:50.639Z,96440.56
2018-07-07T21:25:19.205Z,96440.08
2018-07-07T21:27:47.823Z,96444.77
2018-07-07T21:30:16.496Z,96444.29
2018-07-07T21:32:45.052Z,96444.59
2018-07-07T21:35:13.674Z,96449.02
2018-07-07T21:37:42.288Z,96446.24
2018-07-07T21:40:10.880Z,96445.94
2018-07-07T21:42:39.664Z,96447.88
2018-07-07T21:45:08.285Z,96442.57
2018-07-07T21:47:36.877Z,96450.20
2018-07-07T21:50:05.911Z,96445.64
2018-07-07T21:52:34.492Z,96452.34
2018-07-07T21:55:03.144Z,96450.07
2018-07-07T21:57:36.859Z,96449.59
2018-07-07T22:00:06.077Z,96447.16
2018-07-07T22:02:40.672Z,96445.36
2018-07-07T22:05:14.355Z,96454.30
2018-07-07T22:07:42.931Z,96454.93
2018-07-07T22:10:11.612Z,96453.46
2018-07-07T22:12:40.171Z,96455.56
2018-07-07T22:15:08.934Z,96450.38
2018-07-07T22:17:37.500Z,96450.52
2018-07-07T22:20:06.112Z,96447.27
2018-07-07T22:22:34.715Z,96446.30
2018-07-07T22:25:03.367Z,96447.27
2018-07-07T22:27:32.049Z,96446.30
2018-07-07T22:30:00.656Z,96450.69
2018-07-07T22:32:33.410Z,96439.81
2018-07-07T22:35:07.463Z,96450.84
2018-07-07T22:37:36.109Z,96444.16
2018-07-07T22:40:04.748Z,96444.82
2018-07-07T22:42:33.296Z,96443.35
2018-07-07T22:45:01.937Z,96442.45
2018-07-07T22:47:30.536Z,96440.64
2018-07-07T22:49:59.110Z,96438.51
2018-07-07T22:52:27.711Z,96441.22
2018-07-07T22:54:56.267Z,96439.20
2018-07-07T22:57:24.897Z,96438.41
2018-07-07T22:59:53.596Z,96432.50
2018-07-07T23:02:22.196Z,96438.20
2018-07-07T23:04:50.865Z,96438.20
2018-07-07T23:07:19.441Z,96436.45
2018-07-07T23:09:48.007Z,96438.09
2018-07-07T23:12:16.608Z,96430.96
2018-07-07T23:14:45.219Z,96434.20
2018-07-07T23:17:14.001Z,96433.91
2018-07-07T23:19:42.713Z,96434.98
2018-07-07T23:22:12.184Z,96437.08
2018-07-07T23:24:40.765Z,96435.30
2018-07-07T23:27:09.407Z,96427.63
2018-07-07T23:29:38.153Z,96428.74
2018-07-07T23:32:06.763Z,96428.53
2018-07-07T23:34:35.371Z,96429.83
2018-07-07T23:37:03.987Z,96436.10
2018-07-07T23:39:32.516Z,96437.20
2018-07-07T23:42:01.122Z,96437.84
2018-07-07T23:44:29.745Z,96440.31
2018-07-07T23:46:58.351Z,96432.40
2018-07-07T23:49:27.184Z,96431.12
2018-07-07T23:51:55.848Z,96430.17
2018-07-07T23:54:24.462Z,96432.42
2018-07-07T23:56:53.020Z,96427.50
2018-07-07T23:59:21.614Z,96420.80
